createdAt,value
2023-01-20T00:00:37.754Z,1.50
2023-01-20T00:03:24.392Z,1.40
2023-01-20T00:06:11.266Z,1.50
2023-01-20T00:09:00.240Z,1.40
2023-01-20T00:11:47.343Z,1.40
2023-01-20T00:14:35.375Z,1.40
2023-01-20T00:17:21.745Z,1.50
2023-01-20T00:20:09.426Z,1.60
2023-01-20T00:22:55.896Z,1.70
2023-01-20T00:25:42.199Z,1.80
2023-01-20T00:28:28.828Z,1.90
2023-01-20T00:31:18.754Z,1.80
2023-01-20T00:34:05.520Z,1.60
2023-01-20T00:36:52.302Z,1.70
2023-01-20T00:39:38.669Z,1.70
2023-01-20T00:42:25.780Z,1.70
2023-01-20T00:45:13.036Z,1.60
2023-01-20T00:48:01.156Z,1.40
2023-01-20T00:50:47.711Z,1.20
2023-01-20T00:53:34.668Z,1.10
2023-01-20T00:56:21.070Z,0.90
2023-01-20T00:59:07.584Z,0.70
2023-01-20T01:01:54.081Z,0.80
2023-01-20T01:04:42.281Z,0.70
2023-01-20T01:07:28.607Z,0.90
2023-01-20T01:10:15.277Z,0.90
2023-01-20T01:13:02.675Z,0.60
2023-01-20T01:15:50.491Z,0.60
2023-01-20T01:18:37.125Z,0.70
2023-01-20T01:21:24.951Z,0.80
2023-01-20T01:24:11.724Z,0.80
2023-01-20T01:26:58.258Z,1.00
2023-01-20T01:29:44.589Z,1.00
2023-01-20T01:32:31.010Z,1.00
2023-01-20T01:35:17.617Z,1.00
2023-01-20T01:38:05.697Z,0.90
2023-01-20T01:40:53.176Z,1.00
2023-01-20T01:43:40.378Z,1.10
2023-01-20T01:46:26.880Z,1.20
2023-01-20T01:49:18.584Z,1.30
2023-01-20T01:52:09.066Z,1.20
2023-01-20T01:54:58.518Z,1.20
2023-01-20T01:57:45.729Z,1.30
2023-01-20T02:00:32.504Z,1.20
2023-01-20T02:03:19.839Z,1.10
2023-01-20T02:06:07.892Z,1.00
2023-01-20T02:08:54.361Z,1.00
2023-01-20T02:11:48.510Z,1.00
2023-01-20T02:14:38.967Z,1.10
2023-01-20T02:17:29.499Z,0.90
2023-01-20T02:20:37.790Z,0.80
2023-01-20T02:23:44.980Z,0.80
2023-01-20T02:27:03.941Z,0.70
2023-01-20T02:30:14.574Z,0.80
2023-01-20T02:33:09.362Z,0.60
2023-01-20T02:35:59.779Z,0.60
2023-01-20T02:38:55.383Z,0.50
2023-01-20T02:41:50.515Z,0.40
2023-01-20T02:44:44.861Z,0.40
2023-01-20T02:47:38.369Z,0.40
2023-01-20T02:50:32.843Z,0.50
2023-01-20T02:53:20.602Z,0.60
2023-01-20T02:56:09.415Z,0.70
2023-01-20T02:58:59.163Z,0.70
2023-01-20T03:01:50.981Z,0.60
2023-01-20T03:04:41.990Z,0.70
2023-01-20T03:07:31.991Z,0.60
2023-01-20T03:10:21.832Z,0.50
2023-01-20T03:13:12.309Z,0.50
2023-01-20T03:16:01.614Z,0.50
2023-01-20T03:18:47.909Z,0.60
2023-01-20T03:21:35.262Z,0.60
2023-01-20T03:24:24.864Z,0.60
2023-01-20T03:27:12.593Z,0.50
2023-01-20T03:29:59.344Z,0.60
2023-01-20T03:32:50.485Z,0.90
2023-01-20T03:35:37.773Z,0.80
2023-01-20T03:38:24.584Z,0.70
2023-01-20T03:41:19.140Z,0.60
2023-01-20T03:44:12.472Z,0.50
2023-01-20T03:47:08.636Z,0.60
2023-01-20T03:50:06.185Z,0.80
2023-01-20T03:52:55.531Z,0.90
2023-01-20T03:55:47.232Z,1.20
2023-01-20T03:58:40.024Z,1.20
2023-01-20T04:01:31.353Z,1.20
2023-01-20T04:04:20.554Z,1.30
2023-01-20T04:07:07.916Z,1.20
2023-01-20T04:09:59.776Z,1.20
2023-01-20T04:12:46.392Z,1.10
2023-01-20T04:15:38.896Z,1.10
2023-01-20T04:18:25.672Z,1.20
2023-01-20T04:21:16.655Z,1.20
2023-01-20T04:24:09.803Z,1.20
2023-01-20T04:26:56.294Z,1.20
2023-01-20T04:29:42.896Z,1.10
2023-01-20T04:32:30.816Z,1.00
2023-01-20T04:35:19.240Z,0.90
2023-01-20T04:38:06.493Z,0.90
2023-01-20T04:40:53.233Z,1.00
2023-01-20T04:43:39.761Z,1.20
2023-01-20T04:46:26.385Z,1.20
2023-01-20T04:49:14.627Z,1.20
2023-01-20T04:52:01.418Z,1.20
2023-01-20T04:54:48.011Z,1.10
2023-01-20T04:57:34.511Z,1.20
2023-01-20T05:00:21.533Z,1.10
2023-01-20T05:03:08.299Z,1.00
2023-01-20T05:05:56.109Z,0.90
2023-01-20T05:08:42.717Z,0.90
2023-01-20T05:11:29.079Z,0.80
2023-01-20T05:14:15.761Z,0.70
2023-01-20T05:17:02.070Z,0.70
2023-01-20T05:19:48.312Z,0.70
2023-01-20T05:22:36.023Z,0.80
2023-01-20T05:25:22.408Z,0.50
2023-01-20T05:28:09.407Z,0.60
2023-01-20T05:30:56.174Z,0.60
2023-01-20T05:33:43.015Z,0.70
2023-01-20T05:36:29.358Z,0.60
2023-01-20T05:39:17.082Z,0.50
2023-01-20T05:42:03.483Z,0.60
2023-01-20T05:44:49.808Z,0.60
2023-01-20T05:47:36.272Z,0.70
2023-01-20T05:50:22.636Z,0.60
2023-01-20T05:53:08.972Z,0.50
2023-01-20T05:56:02.389Z,0.20
2023-01-20T05:58:48.703Z,0.20
2023-01-20T06:01:35.319Z,0.00
2023-01-20T06:04:22.182Z,-0.40
2023-01-20T06:07:08.636Z,-0.60
2023-01-20T06:09:54.969Z,-0.70
2023-01-20T06:12:42.912Z,-0.80
2023-01-20T06:15:29.820Z,-0.80
2023-01-20T06:18:16.594Z,-0.70
2023-01-20T06:21:02.961Z,-0.60
2023-01-20T06:23:49.392Z,-0.60
2023-01-20T06:26:35.662Z,-0.60
2023-01-20T06:29:23.832Z,-0.60
2023-01-20T06:32:10.232Z,-0.70
2023-01-20T06:34:56.680Z,-0.80
2023-01-20T06:37:43.059Z,-0.60
2023-01-20T06:40:29.483Z,-0.50
2023-01-20T06:43:15.889Z,-0.40
2023-01-20T06:46:05.867Z,-0.30
2023-01-20T06:48:52.265Z,-0.30
2023-01-20T06:51:38.692Z,-0.30
2023-01-20T06:54:25.452Z,-0.40
2023-01-20T06:57:12.144Z,-0.40
2023-01-20T06:59:59.188Z,-0.40
2023-01-20T07:02:49.123Z,-0.60
2023-01-20T07:05:35.741Z,-0.60
2023-01-20T07:08:22.167Z,-0.60
2023-01-20T07:11:08.519Z,-0.70
2023-01-20T07:13:54.822Z,-0.60
2023-01-20T07:16:41.248Z,-0.50
2023-01-20T07:19:29.422Z,-0.40
2023-01-20T07:22:15.829Z,-0.40
2023-01-20T07:25:02.208Z,-0.30
2023-01-20T07:27:48.626Z,-0.30
2023-01-20T07:30:35.121Z,-0.50
2023-01-20T07:33:22.133Z,-0.70
2023-01-20T07:36:11.136Z,-0.70
2023-01-20T07:38:57.616Z,-0.70
2023-01-20T07:41:48.674Z,-0.60
2023-01-20T07:44:35.255Z,-0.40
2023-01-20T07:47:21.706Z,-0.30
2023-01-20T07:50:08.662Z,-0.20
2023-01-20T07:52:56.906Z,-0.20
2023-01-20T07:55:43.656Z,-0.30
2023-01-20T07:58:30.763Z,-0.20
2023-01-20T08:01:19.002Z,0.10
2023-01-20T08:04:05.548Z,0.30
2023-01-20T08:06:51.796Z,0.20
2023-01-20T08:09:41.418Z,-0.10
2023-01-20T08:12:28.892Z,-0.30
2023-01-20T08:15:15.653Z,-0.40
2023-01-20T08:18:02.098Z,-0.50
2023-01-20T08:20:48.723Z,-0.30
2023-01-20T08:23:35.610Z,0.10
2023-01-20T08:26:24.911Z,0.40
2023-01-20T08:29:11.868Z,0.70
2023-01-20T08:32:00.831Z,0.70
2023-01-20T08:34:47.456Z,0.90
2023-01-20T08:37:37.033Z,1.10
2023-01-20T08:40:23.933Z,1.10
2023-01-20T08:43:12.357Z,1.40
2023-01-20T08:46:03.224Z,1.50
2023-01-20T08:48:51.367Z,1.70
2023-01-20T08:51:37.805Z,1.80
2023-01-20T08:54:25.423Z,2.10
2023-01-20T08:57:11.956Z,2.50
2023-01-20T09:00:00.147Z,2.60
2023-01-20T09:02:47.065Z,2.70
2023-01-20T09:05:37.323Z,2.80
2023-01-20T09:08:26.932Z,3.10
2023-01-20T09:11:16.181Z,3.10
2023-01-20T09:14:02.888Z,3.50
2023-01-20T09:16:51.080Z,3.80
2023-01-20T09:19:37.869Z,3.90
2023-01-20T09:22:24.658Z,4.10
2023-01-20T09:25:12.272Z,3.80
2023-01-20T09:28:02.203Z,3.70
2023-01-20T09:30:48.926Z,3.60
2023-01-20T09:33:39.251Z,3.60
2023-01-20T09:36:28.541Z,3.50
2023-01-20T09:39:33.402Z,3.30
2023-01-20T09:42:46.942Z,3.30
2023-01-20T09:45:38.933Z,3.30
2023-01-20T09:48:52.615Z,3.40
2023-01-20T09:52:07.391Z,3.40
2023-01-20T09:54:59.488Z,3.40
2023-01-20T09:57:51.738Z,3.60
2023-01-20T10:00:40.916Z,3.50
2023-01-20T10:03:37.097Z,3.50
2023-01-20T10:06:29.630Z,3.60
2023-01-20T10:09:25.223Z,3.70
2023-01-20T10:12:17.255Z,3.60
2023-01-20T10:15:12.271Z,3.70
2023-01-20T10:18:03.740Z,3.70
2023-01-20T10:20:54.842Z,3.80
2023-01-20T10:23:48.162Z,3.90
2023-01-20T10:26:39.549Z,3.90
2023-01-20T10:29:33.349Z,4.00
2023-01-20T10:32:24.995Z,3.80
2023-01-20T10:35:16.330Z,3.90
2023-01-20T10:38:07.518Z,3.90
2023-01-20T10:41:01.416Z,3.70
2023-01-20T10:43:49.815Z,3.70
2023-01-20T10:46:53.532Z,3.70
2023-01-20T10:50:13.211Z,3.60
2023-01-20T10:53:36.468Z,3.70
2023-01-20T10:56:43.357Z,3.70
2023-01-20T10:59:35.070Z,3.70
2023-01-20T11:02:27.147Z,3.70
2023-01-20T11:05:18.616Z,3.80
2023-01-20T11:08:11.229Z,3.80
2023-01-20T11:11:00.163Z,3.80
2023-01-20T11:13:47.025Z,3.90
2023-01-20T11:16:35.927Z,3.90
2023-01-20T11:19:22.760Z,4.00
2023-01-20T11:22:13.581Z,4.10
2023-01-20T11:25:01.388Z,4.30
2023-01-20T11:27:48.660Z,4.40
2023-01-20T11:30:36.699Z,4.50
2023-01-20T11:33:26.566Z,4.50
2023-01-20T11:36:19.867Z,4.50
2023-01-20T11:39:24.802Z,4.70
2023-01-20T11:42:15.329Z,4.50
2023-01-20T11:45:20.406Z,4.30
2023-01-20T11:48:18.234Z,4.40
2023-01-20T11:51:06.274Z,4.40
2023-01-20T11:54:06.873Z,4.50
2023-01-20T11:56:56.827Z,4.70
2023-01-20T11:59:52.625Z,4.70
2023-01-20T12:02:41.221Z,4.90
2023-01-20T12:05:36.694Z,4.80
2023-01-20T12:08:30.501Z,5.20
2023-01-20T12:11:21.178Z,5.70
2023-01-20T12:14:24.898Z,5.80
2023-01-20T12:17:20.137Z,5.90
2023-01-20T12:20:13.007Z,5.90
2023-01-20T12:23:21.007Z,5.80
2023-01-20T12:26:11.459Z,5.70
2023-01-20T12:29:03.052Z,5.30
2023-01-20T12:31:50.023Z,5.20
2023-01-20T12:34:36.521Z,4.90
2023-01-20T12:37:29.643Z,5.00
2023-01-20T12:40:30.595Z,4.90
2023-01-20T12:43:33.591Z,4.80
2023-01-20T12:46:32.874Z,4.70
2023-01-20T12:49:37.731Z,4.50
2023-01-20T12:52:41.570Z,4.30
2023-01-20T12:55:43.783Z,4.20
2023-01-20T12:58:42.595Z,4.20
2023-01-20T13:01:48.677Z,4.30
2023-01-20T13:04:58.221Z,4.60
2023-01-20T13:07:55.993Z,4.80
2023-01-20T13:11:05.920Z,5.00
2023-01-20T13:14:05.372Z,5.00
2023-01-20T13:16:58.632Z,4.70
2023-01-20T13:19:49.054Z,4.70
2023-01-20T13:22:35.972Z,4.70
2023-01-20T13:25:23.734Z,4.70
2023-01-20T13:28:19.948Z,4.70
2023-01-20T13:31:33.875Z,4.80
2023-01-20T13:34:34.590Z,4.90
2023-01-20T13:37:36.671Z,4.90
2023-01-20T13:40:50.230Z,5.00
2023-01-20T13:43:50.784Z,5.00
2023-01-20T13:46:48.776Z,4.90
2023-01-20T13:49:50.786Z,4.90
2023-01-20T13:53:13.988Z,4.70
2023-01-20T13:56:02.467Z,4.60
2023-01-20T13:58:49.379Z,4.50
2023-01-20T14:01:37.510Z,4.40
2023-01-20T14:04:25.542Z,4.30
2023-01-20T14:07:23.906Z,4.10
2023-01-20T14:10:14.140Z,3.90
2023-01-20T14:13:00.711Z,3.80
2023-01-20T14:15:50.871Z,3.70
2023-01-20T14:18:37.978Z,3.70
2023-01-20T14:21:27.165Z,3.70
2023-01-20T14:24:28.214Z,3.70
2023-01-20T14:27:19.668Z,3.80
2023-01-20T14:30:18.459Z,3.70
2023-01-20T14:33:09.369Z,3.80
2023-01-20T14:35:56.033Z,3.90
2023-01-20T14:38:56.499Z,4.00
2023-01-20T14:41:49.392Z,4.20
2023-01-20T14:44:36.029Z,4.20
2023-01-20T14:47:23.811Z,4.30
2023-01-20T14:50:14.871Z,4.20
2023-01-20T14:53:01.601Z,4.20
2023-01-20T14:56:01.926Z,4.20
2023-01-20T14:58:49.452Z,4.20
2023-01-20T15:01:36.175Z,4.30
2023-01-20T15:04:23.140Z,4.30
2023-01-20T15:07:19.304Z,4.20
2023-01-20T15:10:08.536Z,4.20
2023-01-20T15:12:57.007Z,4.30
2023-01-20T15:15:43.575Z,4.10
2023-01-20T15:18:30.465Z,4.10
2023-01-20T15:21:27.665Z,4.00
2023-01-20T15:24:16.152Z,4.00
2023-01-20T15:27:04.380Z,4.10
2023-01-20T15:30:16.816Z,4.10
2023-01-20T15:33:03.652Z,4.00
2023-01-20T15:35:54.124Z,4.10
2023-01-20T15:38:40.413Z,4.00
2023-01-20T15:41:27.428Z,3.90
2023-01-20T15:44:14.379Z,3.90
2023-01-20T15:47:02.139Z,3.90
2023-01-20T15:49:48.651Z,3.80
2023-01-20T15:52:35.673Z,3.90
2023-01-20T15:55:21.991Z,3.90
2023-01-20T15:58:22.623Z,3.80
2023-01-20T16:01:13.574Z,3.60
2023-01-20T16:04:01.636Z,3.50
2023-01-20T16:06:48.299Z,3.50
2023-01-20T16:09:38.512Z,3.60
2023-01-20T16:12:25.526Z,3.50
2023-01-20T16:15:15.983Z,3.50
2023-01-20T16:18:02.665Z,3.50
2023-01-20T16:20:50.724Z,3.50
2023-01-20T16:23:36.969Z,3.50
2023-01-20T16:26:25.595Z,3.60
2023-01-20T16:29:12.173Z,3.60
2023-01-20T16:31:58.662Z,3.60
2023-01-20T16:34:45.699Z,3.60
2023-01-20T16:37:33.480Z,3.60
2023-01-20T16:40:22.156Z,3.40
2023-01-20T16:43:12.678Z,3.20
2023-01-20T16:45:59.499Z,3.10
2023-01-20T16:48:46.752Z,3.00
2023-01-20T16:51:33.461Z,3.10
2023-01-20T16:54:21.703Z,3.10
2023-01-20T16:57:08.311Z,3.10
2023-01-20T16:59:54.678Z,3.00
2023-01-20T17:02:41.468Z,2.70
2023-01-20T17:05:29.150Z,2.60
2023-01-20T17:08:15.481Z,2.50
2023-01-20T17:11:03.788Z,2.40
2023-01-20T17:13:50.464Z,2.30
2023-01-20T17:16:37.078Z,2.10
2023-01-20T17:19:26.086Z,2.10
2023-01-20T17:22:12.761Z,2.20
2023-01-20T17:24:59.245Z,2.20
2023-01-20T17:27:47.393Z,2.10
2023-01-20T17:30:34.227Z,2.10
2023-01-20T17:33:20.611Z,2.10
2023-01-20T17:36:07.797Z,2.20
2023-01-20T17:38:54.670Z,2.30
2023-01-20T17:41:41.091Z,2.20
2023-01-20T17:44:29.341Z,2.10
2023-01-20T17:47:16.207Z,2.10
2023-01-20T17:50:02.719Z,2.00
2023-01-20T17:52:49.729Z,2.00
2023-01-20T17:55:36.064Z,2.10
2023-01-20T17:58:22.846Z,2.10
2023-01-20T18:01:16.138Z,2.10
2023-01-20T18:04:06.274Z,2.10
2023-01-20T18:06:53.400Z,2.20
2023-01-20T18:09:42.117Z,2.30
2023-01-20T18:12:29.808Z,2.30
2023-01-20T18:15:16.815Z,2.30
2023-01-20T18:18:05.125Z,2.40
2023-01-20T18:20:51.990Z,2.40
2023-01-20T18:23:39.365Z,2.50
2023-01-20T18:26:29.384Z,2.60
2023-01-20T18:29:17.607Z,2.70
2023-01-20T18:32:04.575Z,2.60
2023-01-20T18:34:52.402Z,2.70
2023-01-20T18:37:39.032Z,2.80
2023-01-20T18:40:25.370Z,2.80
2023-01-20T18:43:11.797Z,2.80
2023-01-20T18:45:58.198Z,2.80
2023-01-20T18:48:47.313Z,2.90
2023-01-20T18:51:36.151Z,2.90
2023-01-20T18:54:24.854Z,2.80
2023-01-20T18:57:11.698Z,2.70
2023-01-20T18:59:58.018Z,2.70
2023-01-20T19:02:44.563Z,2.70
2023-01-20T19:05:32.657Z,2.60
2023-01-20T19:08:20.617Z,2.60
2023-01-20T19:11:09.186Z,2.60
2023-01-20T19:13:56.172Z,2.70
2023-01-20T19:16:45.324Z,2.70
2023-01-20T19:19:32.010Z,2.80
2023-01-20T19:22:18.254Z,2.80
2023-01-20T19:25:06.892Z,2.90
2023-01-20T19:27:53.788Z,2.90
2023-01-20T19:30:41.052Z,2.80
2023-01-20T19:33:27.710Z,2.90
2023-01-20T19:36:16.141Z,3.00
2023-01-20T19:39:02.794Z,3.00
2023-01-20T19:41:51.036Z,3.00
2023-01-20T19:44:37.563Z,3.10
2023-01-20T19:47:23.870Z,3.20
2023-01-20T19:50:11.635Z,3.10
2023-01-20T19:52:58.069Z,3.00
2023-01-20T19:55:45.069Z,3.00
2023-01-20T19:58:33.248Z,3.00
2023-01-20T20:01:21.166Z,3.00
2023-01-20T20:04:10.068Z,3.10
2023-01-20T20:06:56.709Z,3.00
2023-01-20T20:09:43.476Z,3.00
2023-01-20T20:12:30.991Z,3.00
2023-01-20T20:15:19.126Z,3.00
2023-01-20T20:18:06.470Z,3.00
2023-01-20T20:20:52.998Z,3.10
2023-01-20T20:23:39.419Z,3.10
2023-01-20T20:26:28.666Z,3.00
2023-01-20T20:29:18.325Z,3.10
2023-01-20T20:32:06.804Z,3.00
2023-01-20T20:34:53.681Z,2.90
2023-01-20T20:37:40.056Z,2.90
2023-01-20T20:40:26.487Z,3.00
2023-01-20T20:43:12.909Z,3.10
2023-01-20T20:46:01.243Z,3.10
2023-01-20T20:48:49.193Z,3.10
2023-01-20T20:51:35.922Z,3.20
2023-01-20T20:54:22.207Z,3.20
2023-01-20T20:57:08.540Z,3.20
2023-01-20T20:59:59.432Z,3.30
2023-01-20T21:02:46.750Z,3.30
2023-01-20T21:05:35.220Z,3.20
2023-01-20T21:08:22.164Z,3.30
2023-01-20T21:11:11.208Z,3.30
2023-01-20T21:13:57.747Z,3.30
2023-01-20T21:16:44.073Z,3.30
2023-01-20T21:19:30.446Z,3.30
2023-01-20T21:22:18.354Z,3.40
2023-01-20T21:25:06.211Z,3.40
2023-01-20T21:27:52.823Z,3.40
2023-01-20T21:30:39.650Z,3.40
2023-01-20T21:33:26.611Z,3.50
2023-01-20T21:36:13.386Z,3.40
2023-01-20T21:39:01.684Z,3.30
2023-01-20T21:41:48.124Z,3.30
2023-01-20T21:44:34.314Z,3.30
2023-01-20T21:47:20.909Z,3.00
2023-01-20T21:50:25.927Z,2.90
2023-01-20T21:53:14.908Z,2.60
2023-01-20T21:56:03.025Z,2.70
2023-01-20T21:58:50.933Z,2.70
2023-01-20T22:01:38.372Z,2.60
2023-01-20T22:04:24.793Z,2.40
2023-01-20T22:07:11.378Z,2.30
2023-01-20T22:09:58.405Z,2.30
2023-01-20T22:12:46.423Z,2.20
2023-01-20T22:15:34.822Z,2.10
2023-01-20T22:18:21.361Z,2.00
2023-01-20T22:21:08.739Z,2.00
2023-01-20T22:23:55.047Z,2.00
2023-01-20T22:26:41.328Z,2.00
2023-01-20T22:29:29.433Z,2.00
2023-01-20T22:32:16.329Z,2.10
2023-01-20T22:35:02.533Z,2.10
2023-01-20T22:37:48.922Z,2.20
2023-01-20T22:40:36.059Z,2.20
2023-01-20T22:43:22.652Z,2.30
2023-01-20T22:46:12.980Z,2.40
2023-01-20T22:49:00.428Z,2.50
2023-01-20T22:51:47.237Z,2.50
2023-01-20T22:54:33.512Z,2.40
2023-01-20T22:57:20.011Z,2.40
2023-01-20T23:00:08.232Z,2.40
2023-01-20T23:02:56.716Z,2.40
2023-01-20T23:05:51.828Z,2.20
2023-01-20T23:08:38.569Z,2.10
2023-01-20T23:11:25.234Z,2.00
2023-01-20T23:14:13.534Z,2.00
2023-01-20T23:17:00.424Z,2.00
2023-01-20T23:19:48.076Z,1.90
2023-01-20T23:22:34.465Z,2.00
2023-01-20T23:25:20.872Z,2.00
2023-01-20T23:28:07.786Z,1.90
2023-01-20T23:31:00.517Z,1.80
2023-01-20T23:33:47.708Z,1.70
2023-01-20T23:36:35.647Z,1.50
2023-01-20T23:39:22.650Z,1.50
2023-01-20T23:42:09.235Z,1.40
2023-01-20T23:44:56.545Z,1.40
2023-01-20T23:47:43.228Z,1.30
2023-01-20T23:50:29.753Z,1.30
2023-01-20T23:53:17.398Z,1.40
2023-01-20T23:56:05.957Z,1.50
2023-01-20T23:58:53.138Z,1.40
